sensor_id;sensor_type;location;lat;lon;timestamp;P1;durP1;ratioP1;P2;durP2;ratioP2
23384;SDS011;11865;45.394;10.978;2022-10-15T00:01:23;83.97;;;42.13;;
23384;SDS011;11865;45.394;10.978;2022-10-15T00:03:52;89.30;;;44.92;;
23384;SDS011;11865;45.394;10.978;2022-10-15T00:06:19;84.43;;;43.55;;
23384;SDS011;11865;45.394;10.978;2022-10-15T00:08:47;85.18;;;41.45;;
23384;SDS011;11865;45.394;10.978;2022-10-15T00:11:16;84.28;;;41.38;;
23384;SDS011;11865;45.394;10.978;2022-10-15T00:13:46;95.87;;;44.23;;
23384;SDS011;11865;45.394;10.978;2022-10-15T00:16:16;91.88;;;41.15;;
23384;SDS011;11865;45.394;10.978;2022-10-15T00:18:45;85.50;;;41.70;;
23384;SDS011;11865;45.394;10.978;2022-10-15T00:21:13;85.15;;;42.63;;
23384;SDS011;11865;45.394;10.978;2022-10-15T00:23:42;83.47;;;41.17;;
23384;SDS011;11865;45.394;10.978;2022-10-15T00:26:12;84.70;;;42.80;;
23384;SDS011;11865;45.394;10.978;2022-10-15T00:28:40;82.47;;;42.47;;
23384;SDS011;11865;45.394;10.978;2022-10-15T00:31:10;85.28;;;40.60;;
23384;SDS011;11865;45.394;10.978;2022-10-15T00:33:42;82.88;;;40.67;;
23384;SDS011;11865;45.394;10.978;2022-10-15T00:36:12;89.03;;;41.50;;
23384;SDS011;11865;45.394;10.978;2022-10-15T00:38:42;84.10;;;41.03;;
23384;SDS011;11865;45.394;10.978;2022-10-15T00:41:20;82.82;;;43.17;;
23384;SDS011;11865;45.394;10.978;2022-10-15T00:43:49;84.50;;;41.80;;
23384;SDS011;11865;45.394;10.978;2022-10-15T00:54:15;77.85;;;39.50;;
23384;SDS011;11865;45.394;10.978;2022-10-15T00:56:42;75.93;;;40.30;;
23384;SDS011;11865;45.394;10.978;2022-10-15T00:59:12;80.50;;;41.17;;
23384;SDS011;11865;45.394;10.978;2022-10-15T01:01:41;77.47;;;39.92;;
23384;SDS011;11865;45.394;10.978;2022-10-15T01:04:09;82.20;;;39.60;;
23384;SDS011;11865;45.394;10.978;2022-10-15T01:06:38;76.03;;;40.20;;
23384;SDS011;11865;45.394;10.978;2022-10-15T01:09:07;79.18;;;40.65;;
23384;SDS011;11865;45.394;10.978;2022-10-15T01:27:33;85.50;;;41.15;;
23384;SDS011;11865;45.394;10.978;2022-10-15T01:35:47;86.80;;;43.25;;
23384;SDS011;11865;45.394;10.978;2022-10-15T01:38:45;82.72;;;43.75;;
23384;SDS011;11865;45.394;10.978;2022-10-15T01:47:00;84.10;;;43.60;;
23384;SDS011;11865;45.394;10.978;2022-10-15T01:49:39;95.85;;;45.13;;
23384;SDS011;11865;45.394;10.978;2022-10-15T01:52:44;88.63;;;45.57;;
23384;SDS011;11865;45.394;10.978;2022-10-15T01:55:05;88.40;;;44.97;;
23384;SDS011;11865;45.394;10.978;2022-10-15T02:00:06;86.43;;;43.60;;
23384;SDS011;11865;45.394;10.978;2022-10-15T02:02:40;90.18;;;45.42;;
23384;SDS011;11865;45.394;10.978;2022-10-15T02:05:14;88.25;;;43.97;;
23384;SDS011;11865;45.394;10.978;2022-10-15T02:11:05;89.93;;;43.58;;
23384;SDS011;11865;45.394;10.978;2022-10-15T02:14:03;93.47;;;45.88;;
23384;SDS011;11865;45.394;10.978;2022-10-15T02:16:53;87.28;;;44.50;;
23384;SDS011;11865;45.394;10.978;2022-10-15T02:19:54;86.15;;;43.00;;
23384;SDS011;11865;45.394;10.978;2022-10-15T02:22:29;89.40;;;43.22;;
23384;SDS011;11865;45.394;10.978;2022-10-15T02:25:08;87.13;;;43.97;;
23384;SDS011;11865;45.394;10.978;2022-10-15T02:27:41;82.03;;;41.35;;
23384;SDS011;11865;45.394;10.978;2022-10-15T02:30:10;83.97;;;42.20;;
23384;SDS011;11865;45.394;10.978;2022-10-15T02:32:39;78.65;;;40.80;;
23384;SDS011;11865;45.394;10.978;2022-10-15T02:35:08;83.72;;;42.20;;
23384;SDS011;11865;45.394;10.978;2022-10-15T02:40:10;82.35;;;41.72;;
23384;SDS011;11865;45.394;10.978;2022-10-15T02:42:38;78.93;;;41.90;;
23384;SDS011;11865;45.394;10.978;2022-10-15T02:45:07;85.40;;;41.47;;
23384;SDS011;11865;45.394;10.978;2022-10-15T02:47:35;86.32;;;42.83;;
23384;SDS011;11865;45.394;10.978;2022-10-15T02:50:02;81.97;;;40.50;;
23384;SDS011;11865;45.394;10.978;2022-10-15T02:52:30;79.95;;;40.03;;
23384;SDS011;11865;45.394;10.978;2022-10-15T02:54:58;77.88;;;40.13;;
23384;SDS011;11865;45.394;10.978;2022-10-15T02:57:26;78.55;;;40.03;;
23384;SDS011;11865;45.394;10.978;2022-10-15T02:59:53;81.57;;;41.90;;
23384;SDS011;11865;45.394;10.978;2022-10-15T03:02:21;77.40;;;41.15;;
23384;SDS011;11865;45.394;10.978;2022-10-15T03:04:48;85.45;;;43.75;;
23384;SDS011;11865;45.394;10.978;2022-10-15T03:07:17;84.45;;;41.55;;
23384;SDS011;11865;45.394;10.978;2022-10-15T03:09:45;82.00;;;40.95;;
23384;SDS011;11865;45.394;10.978;2022-10-15T03:12:14;85.88;;;40.65;;
23384;SDS011;11865;45.394;10.978;2022-10-15T03:14:41;83.45;;;40.30;;
23384;SDS011;11865;45.394;10.978;2022-10-15T03:17:09;82.20;;;37.45;;
23384;SDS011;11865;45.394;10.978;2022-10-15T03:19:37;73.68;;;39.60;;
23384;SDS011;11865;45.394;10.978;2022-10-15T03:22:05;77.82;;;41.25;;
23384;SDS011;11865;45.394;10.978;2022-10-15T03:24:41;75.45;;;38.78;;
23384;SDS011;11865;45.394;10.978;2022-10-15T03:27:09;74.82;;;39.40;;
23384;SDS011;11865;45.394;10.978;2022-10-15T03:29:37;73.57;;;38.42;;
23384;SDS011;11865;45.394;10.978;2022-10-15T03:32:04;76.07;;;38.97;;
23384;SDS011;11865;45.394;10.978;2022-10-15T03:34:32;77.97;;;40.85;;
23384;SDS011;11865;45.394;10.978;2022-10-15T03:37:00;78.88;;;40.13;;
23384;SDS011;11865;45.394;10.978;2022-10-15T03:39:28;80.00;;;40.67;;
23384;SDS011;11865;45.394;10.978;2022-10-15T03:42:00;73.60;;;37.67;;
23384;SDS011;11865;45.394;10.978;2022-10-15T03:44:36;78.80;;;40.38;;
23384;SDS011;11865;45.394;10.978;2022-10-15T03:47:08;79.28;;;38.72;;
23384;SDS011;11865;45.394;10.978;2022-10-15T03:49:43;77.85;;;41.80;;
23384;SDS011;11865;45.394;10.978;2022-10-15T03:52:10;81.53;;;41.75;;
23384;SDS011;11865;45.394;10.978;2022-10-15T03:54:39;80.07;;;39.92;;
23384;SDS011;11865;45.394;10.978;2022-10-15T03:57:08;81.05;;;38.88;;
23384;SDS011;11865;45.394;10.978;2022-10-15T03:59:43;71.00;;;37.88;;
23384;SDS011;11865;45.394;10.978;2022-10-15T04:02:12;75.43;;;38.00;;
23384;SDS011;11865;45.394;10.978;2022-10-15T04:04:40;82.90;;;41.70;;
23384;SDS011;11865;45.394;10.978;2022-10-15T04:07:08;75.15;;;39.67;;
23384;SDS011;11865;45.394;10.978;2022-10-15T04:09:36;75.70;;;39.45;;
23384;SDS011;11865;45.394;10.978;2022-10-15T04:12:41;81.78;;;40.20;;
23384;SDS011;11865;45.394;10.978;2022-10-15T04:15:14;83.75;;;40.03;;
23384;SDS011;11865;45.394;10.978;2022-10-15T04:17:52;74.97;;;38.38;;
23384;SDS011;11865;45.394;10.978;2022-10-15T04:20:21;71.10;;;36.38;;
23384;SDS011;11865;45.394;10.978;2022-10-15T04:22:49;73.32;;;38.35;;
23384;SDS011;11865;45.394;10.978;2022-10-15T04:25:16;74.57;;;39.05;;
23384;SDS011;11865;45.394;10.978;2022-10-15T04:27:44;74.63;;;38.17;;
23384;SDS011;11865;45.394;10.978;2022-10-15T04:30:15;78.40;;;38.37;;
23384;SDS011;11865;45.394;10.978;2022-10-15T04:32:50;83.95;;;40.90;;
23384;SDS011;11865;45.394;10.978;2022-10-15T04:35:19;74.13;;;38.10;;
23384;SDS011;11865;45.394;10.978;2022-10-15T04:37:56;78.65;;;39.55;;
23384;SDS011;11865;45.394;10.978;2022-10-15T04:40:28;78.03;;;39.47;;
23384;SDS011;11865;45.394;10.978;2022-10-15T04:42:56;78.50;;;40.50;;
23384;SDS011;11865;45.394;10.978;2022-10-15T04:45:23;81.88;;;39.50;;
23384;SDS011;11865;45.394;10.978;2022-10-15T04:47:51;77.78;;;39.30;;
23384;SDS011;11865;45.394;10.978;2022-10-15T04:50:20;77.45;;;39.63;;
23384;SDS011;11865;45.394;10.978;2022-10-15T04:53:06;81.65;;;39.42;;
23384;SDS011;11865;45.394;10.978;2022-10-15T04:55:37;72.30;;;38.80;;
23384;SDS011;11865;45.394;10.978;2022-10-15T04:58:04;97.72;;;45.88;;
23384;SDS011;11865;45.394;10.978;2022-10-15T05:00:32;86.18;;;41.78;;
23384;SDS011;11865;45.394;10.978;2022-10-15T05:03:25;76.63;;;38.00;;
23384;SDS011;11865;45.394;10.978;2022-10-15T05:06:01;76.70;;;37.38;;
23384;SDS011;11865;45.394;10.978;2022-10-15T05:08:37;70.43;;;36.95;;
23384;SDS011;11865;45.394;10.978;2022-10-15T05:13:55;87.82;;;41.00;;
23384;SDS011;11865;45.394;10.978;2022-10-15T05:16:25;79.55;;;39.42;;
23384;SDS011;11865;45.394;10.978;2022-10-15T05:18:57;81.00;;;40.78;;
23384;SDS011;11865;45.394;10.978;2022-10-15T05:21:26;74.18;;;37.40;;
23384;SDS011;11865;45.394;10.978;2022-10-15T05:23:58;74.78;;;38.53;;
23384;SDS011;11865;45.394;10.978;2022-10-15T05:26:46;75.57;;;39.38;;
23384;SDS011;11865;45.394;10.978;2022-10-15T05:29:15;71.93;;;35.97;;
23384;SDS011;11865;45.394;10.978;2022-10-15T05:31:42;80.13;;;39.15;;
23384;SDS011;11865;45.394;10.978;2022-10-15T05:34:17;84.78;;;40.55;;
23384;SDS011;11865;45.394;10.978;2022-10-15T05:36:51;80.53;;;38.88;;
23384;SDS011;11865;45.394;10.978;2022-10-15T05:39:18;80.28;;;40.10;;
23384;SDS011;11865;45.394;10.978;2022-10-15T05:41:46;96.97;;;44.03;;
23384;SDS011;11865;45.394;10.978;2022-10-15T05:44:13;80.63;;;39.72;;
23384;SDS011;11865;45.394;10.978;2022-10-15T05:46:41;76.68;;;38.90;;
23384;SDS011;11865;45.394;10.978;2022-10-15T05:49:14;85.32;;;40.28;;
23384;SDS011;11865;45.394;10.978;2022-10-15T05:51:51;87.47;;;42.83;;
23384;SDS011;11865;45.394;10.978;2022-10-15T05:54:33;88.80;;;41.45;;
23384;SDS011;11865;45.394;10.978;2022-10-15T05:57:01;91.00;;;41.45;;
23384;SDS011;11865;45.394;10.978;2022-10-15T05:59:28;86.13;;;42.95;;
23384;SDS011;11865;45.394;10.978;2022-10-15T06:01:55;98.15;;;46.75;;
23384;SDS011;11865;45.394;10.978;2022-10-15T06:04:23;81.80;;;42.30;;
23384;SDS011;11865;45.394;10.978;2022-10-15T06:06:50;88.47;;;42.33;;
23384;SDS011;11865;45.394;10.978;2022-10-15T06:09:18;98.45;;;47.33;;
23384;SDS011;11865;45.394;10.978;2022-10-15T06:11:45;100.13;;;48.35;;
23384;SDS011;11865;45.394;10.978;2022-10-15T06:14:17;108.20;;;50.35;;
23384;SDS011;11865;45.394;10.978;2022-10-15T06:16:44;105.20;;;49.13;;
23384;SDS011;11865;45.394;10.978;2022-10-15T06:19:16;97.57;;;44.55;;
23384;SDS011;11865;45.394;10.978;2022-10-15T06:21:43;98.82;;;47.75;;
23384;SDS011;11865;45.394;10.978;2022-10-15T06:24:11;95.03;;;46.25;;
23384;SDS011;11865;45.394;10.978;2022-10-15T06:26:38;86.40;;;41.35;;
23384;SDS011;11865;45.394;10.978;2022-10-15T06:29:05;91.95;;;45.00;;
23384;SDS011;11865;45.394;10.978;2022-10-15T06:31:33;88.90;;;43.30;;
23384;SDS011;11865;45.394;10.978;2022-10-15T06:34:00;80.32;;;40.45;;
23384;SDS011;11865;45.394;10.978;2022-10-15T06:36:28;78.93;;;41.22;;
23384;SDS011;11865;45.394;10.978;2022-10-15T06:38:55;79.45;;;39.58;;
23384;SDS011;11865;45.394;10.978;2022-10-15T06:41:22;83.43;;;41.40;;
23384;SDS011;11865;45.394;10.978;2022-10-15T06:43:50;79.85;;;41.33;;
23384;SDS011;11865;45.394;10.978;2022-10-15T06:46:18;87.47;;;41.83;;
23384;SDS011;11865;45.394;10.978;2022-10-15T06:48:45;90.90;;;42.60;;
23384;SDS011;11865;45.394;10.978;2022-10-15T06:51:13;92.00;;;43.00;;
23384;SDS011;11865;45.394;10.978;2022-10-15T06:53:48;78.50;;;40.92;;
23384;SDS011;11865;45.394;10.978;2022-10-15T06:56:15;81.50;;;39.72;;
23384;SDS011;11865;45.394;10.978;2022-10-15T06:58:43;78.63;;;40.75;;
23384;SDS011;11865;45.394;10.978;2022-10-15T07:01:11;83.65;;;40.63;;
23384;SDS011;11865;45.394;10.978;2022-10-15T07:03:38;74.28;;;37.72;;
23384;SDS011;11865;45.394;10.978;2022-10-15T07:06:07;75.90;;;40.20;;
23384;SDS011;11865;45.394;10.978;2022-10-15T07:08:35;73.57;;;38.17;;
23384;SDS011;11865;45.394;10.978;2022-10-15T07:11:03;70.05;;;38.95;;
23384;SDS011;11865;45.394;10.978;2022-10-15T07:13:32;73.95;;;39.72;;
23384;SDS011;11865;45.394;10.978;2022-10-15T07:16:06;78.40;;;38.03;;
23384;SDS011;11865;45.394;10.978;2022-10-15T07:18:35;77.45;;;38.85;;
23384;SDS011;11865;45.394;10.978;2022-10-15T07:21:04;73.78;;;37.65;;
23384;SDS011;11865;45.394;10.978;2022-10-15T07:23:34;69.43;;;36.58;;
23384;SDS011;11865;45.394;10.978;2022-10-15T07:26:01;69.57;;;37.90;;
23384;SDS011;11865;45.394;10.978;2022-10-15T07:28:29;71.07;;;37.45;;
23384;SDS011;11865;45.394;10.978;2022-10-15T07:31:03;71.93;;;37.90;;
23384;SDS011;11865;45.394;10.978;2022-10-15T07:33:32;72.20;;;38.75;;
23384;SDS011;11865;45.394;10.978;2022-10-15T07:36:07;66.80;;;38.38;;
23384;SDS011;11865;45.394;10.978;2022-10-15T07:38:35;75.60;;;39.38;;
23384;SDS011;11865;45.394;10.978;2022-10-15T07:41:03;76.50;;;38.88;;
23384;SDS011;11865;45.394;10.978;2022-10-15T07:43:41;70.03;;;38.95;;
23384;SDS011;11865;45.394;10.978;2022-10-15T07:46:08;71.82;;;38.67;;
23384;SDS011;11865;45.394;10.978;2022-10-15T07:48:36;80.28;;;41.38;;
23384;SDS011;11865;45.394;10.978;2022-10-15T07:51:05;79.78;;;42.22;;
23384;SDS011;11865;45.394;10.978;2022-10-15T07:53:33;74.20;;;40.70;;
23384;SDS011;11865;45.394;10.978;2022-10-15T07:56:04;74.15;;;40.55;;
23384;SDS011;11865;45.394;10.978;2022-10-15T07:58:34;69.60;;;39.30;;
23384;SDS011;11865;45.394;10.978;2022-10-15T08:01:04;69.93;;;39.10;;
23384;SDS011;11865;45.394;10.978;2022-10-15T08:03:33;75.05;;;39.42;;
23384;SDS011;11865;45.394;10.978;2022-10-15T08:06:01;79.72;;;40.17;;
23384;SDS011;11865;45.394;10.978;2022-10-15T08:08:30;75.32;;;37.42;;
23384;SDS011;11865;45.394;10.978;2022-10-15T08:11:09;81.70;;;41.33;;
23384;SDS011;11865;45.394;10.978;2022-10-15T08:13:38;73.32;;;38.83;;
23384;SDS011;11865;45.394;10.978;2022-10-15T08:16:08;80.88;;;42.22;;
23384;SDS011;11865;45.394;10.978;2022-10-15T08:18:37;78.80;;;42.05;;
23384;SDS011;11865;45.394;10.978;2022-10-15T08:21:06;79.25;;;41.05;;
23384;SDS011;11865;45.394;10.978;2022-10-15T08:23:34;79.53;;;42.13;;
23384;SDS011;11865;45.394;10.978;2022-10-15T08:26:02;84.07;;;42.50;;
23384;SDS011;11865;45.394;10.978;2022-10-15T08:28:31;79.53;;;40.35;;
23384;SDS011;11865;45.394;10.978;2022-10-15T08:31:00;80.45;;;41.47;;
23384;SDS011;11865;45.394;10.978;2022-10-15T08:33:33;80.82;;;40.70;;
23384;SDS011;11865;45.394;10.978;2022-10-15T08:36:02;77.22;;;41.33;;
23384;SDS011;11865;45.394;10.978;2022-10-15T08:38:31;75.45;;;39.95;;
23384;SDS011;11865;45.394;10.978;2022-10-15T08:40:59;77.68;;;41.30;;
23384;SDS011;11865;45.394;10.978;2022-10-15T08:43:37;81.60;;;42.28;;
23384;SDS011;11865;45.394;10.978;2022-10-15T08:46:21;74.47;;;41.13;;
23384;SDS011;11865;45.394;10.978;2022-10-15T08:48:55;141.35;;;51.33;;
23384;SDS011;11865;45.394;10.978;2022-10-15T08:51:27;76.05;;;40.17;;
23384;SDS011;11865;45.394;10.978;2022-10-15T08:54:04;80.20;;;40.22;;
23384;SDS011;11865;45.394;10.978;2022-10-15T08:56:33;72.30;;;40.22;;
23384;SDS011;11865;45.394;10.978;2022-10-15T09:01:58;72.35;;;39.60;;
23384;SDS011;11865;45.394;10.978;2022-10-15T09:09:55;77.38;;;40.58;;
23384;SDS011;11865;45.394;10.978;2022-10-15T09:12:41;73.38;;;39.50;;
23384;SDS011;11865;45.394;10.978;2022-10-15T09:15:21;71.10;;;40.58;;
23384;SDS011;11865;45.394;10.978;2022-10-15T09:17:53;71.13;;;40.28;;
23384;SDS011;11865;45.394;10.978;2022-10-15T09:20:25;70.45;;;38.45;;
23384;SDS011;11865;45.394;10.978;2022-10-15T09:22:58;72.45;;;40.42;;
23384;SDS011;11865;45.394;10.978;2022-10-15T09:25:30;81.00;;;41.55;;
23384;SDS011;11865;45.394;10.978;2022-10-15T09:28:10;76.88;;;40.53;;
23384;SDS011;11865;45.394;10.978;2022-10-15T09:35:49;80.85;;;43.00;;
23384;SDS011;11865;45.394;10.978;2022-10-15T09:44:04;76.95;;;42.58;;
23384;SDS011;11865;45.394;10.978;2022-10-15T09:46:47;72.10;;;40.58;;
23384;SDS011;11865;45.394;10.978;2022-10-15T09:49:17;69.38;;;40.00;;
23384;SDS011;11865;45.394;10.978;2022-10-15T09:57:42;76.90;;;41.15;;
23384;SDS011;11865;45.394;10.978;2022-10-15T10:00:17;80.80;;;43.90;;
23384;SDS011;11865;45.394;10.978;2022-10-15T10:03:02;71.70;;;40.67;;
23384;SDS011;11865;45.394;10.978;2022-10-15T10:05:34;83.13;;;44.47;;
23384;SDS011;11865;45.394;10.978;2022-10-15T10:08:07;79.93;;;43.28;;
23384;SDS011;11865;45.394;10.978;2022-10-15T10:13:05;85.43;;;45.22;;
23384;SDS011;11865;45.394;10.978;2022-10-15T10:15:46;77.30;;;42.90;;
23384;SDS011;11865;45.394;10.978;2022-10-15T10:18:17;84.85;;;45.40;;
23384;SDS011;11865;45.394;10.978;2022-10-15T10:20:59;86.88;;;45.33;;
23384;SDS011;11865;45.394;10.978;2022-10-15T10:26:04;84.45;;;46.15;;
23384;SDS011;11865;45.394;10.978;2022-10-15T10:28:52;80.82;;;43.15;;
23384;SDS011;11865;45.394;10.978;2022-10-15T10:31:41;79.78;;;44.17;;
23384;SDS011;11865;45.394;10.978;2022-10-15T10:34:29;80.45;;;44.58;;
23384;SDS011;11865;45.394;10.978;2022-10-15T10:37:01;82.68;;;44.97;;
23384;SDS011;11865;45.394;10.978;2022-10-15T10:39:30;84.60;;;46.15;;
23384;SDS011;11865;45.394;10.978;2022-10-15T10:42:02;85.00;;;46.03;;
23384;SDS011;11865;45.394;10.978;2022-10-15T10:44:31;81.65;;;46.58;;
23384;SDS011;11865;45.394;10.978;2022-10-15T10:52:24;83.15;;;46.50;;
23384;SDS011;11865;45.394;10.978;2022-10-15T10:55:04;80.93;;;46.03;;
23384;SDS011;11865;45.394;10.978;2022-10-15T10:57:49;85.18;;;43.65;;
23384;SDS011;11865;45.394;10.978;2022-10-15T11:00:35;72.07;;;42.08;;
23384;SDS011;11865;45.394;10.978;2022-10-15T11:03:14;75.05;;;41.25;;
23384;SDS011;11865;45.394;10.978;2022-10-15T11:05:54;76.20;;;42.67;;
23384;SDS011;11865;45.394;10.978;2022-10-15T11:11:40;79.60;;;44.58;;
23384;SDS011;11865;45.394;10.978;2022-10-15T11:19:57;86.38;;;45.95;;
23384;SDS011;11865;45.394;10.978;2022-10-15T11:33:48;82.22;;;45.60;;
23384;SDS011;11865;45.394;10.978;2022-10-15T11:54:47;81.32;;;43.65;;
23384;SDS011;11865;45.394;10.978;2022-10-15T11:57:35;85.18;;;44.50;;
23384;SDS011;11865;45.394;10.978;2022-10-15T12:02:52;86.30;;;46.00;;
23384;SDS011;11865;45.394;10.978;2022-10-15T12:05:24;75.85;;;42.60;;
23384;SDS011;11865;45.394;10.978;2022-10-15T12:07:59;86.57;;;44.70;;
23384;SDS011;11865;45.394;10.978;2022-10-15T12:16:27;78.22;;;42.03;;
23384;SDS011;11865;45.394;10.978;2022-10-15T12:29:47;80.95;;;44.70;;
23384;SDS011;11865;45.394;10.978;2022-10-15T12:32:38;84.53;;;44.67;;
23384;SDS011;11865;45.394;10.978;2022-10-15T12:37:43;77.22;;;43.58;;
23384;SDS011;11865;45.394;10.978;2022-10-15T12:42:49;82.03;;;43.90;;
23384;SDS011;11865;45.394;10.978;2022-10-15T12:45:23;72.47;;;43.03;;
23384;SDS011;11865;45.394;10.978;2022-10-15T12:50:42;84.00;;;45.55;;
23384;SDS011;11865;45.394;10.978;2022-10-15T12:58:42;76.70;;;43.22;;
23384;SDS011;11865;45.394;10.978;2022-10-15T13:03:42;83.03;;;45.38;;
23384;SDS011;11865;45.394;10.978;2022-10-15T13:13:52;78.93;;;44.30;;
23384;SDS011;11865;45.394;10.978;2022-10-15T13:16:42;77.45;;;42.75;;
23384;SDS011;11865;45.394;10.978;2022-10-15T13:22:35;81.38;;;42.70;;
23384;SDS011;11865;45.394;10.978;2022-10-15T13:25:03;75.78;;;43.30;;
23384;SDS011;11865;45.394;10.978;2022-10-15T13:27:40;81.93;;;43.95;;
23384;SDS011;11865;45.394;10.978;2022-10-15T13:35:12;83.85;;;40.95;;
23384;SDS011;11865;45.394;10.978;2022-10-15T13:37:44;81.03;;;42.15;;
23384;SDS011;11865;45.394;10.978;2022-10-15T13:45:52;84.67;;;42.80;;
23384;SDS011;11865;45.394;10.978;2022-10-15T13:48:25;74.22;;;40.88;;
23384;SDS011;11865;45.394;10.978;2022-10-15T13:51:04;80.00;;;41.78;;
23384;SDS011;11865;45.394;10.978;2022-10-15T13:53:50;75.03;;;43.20;;
23384;SDS011;11865;45.394;10.978;2022-10-15T13:59:00;78.32;;;41.90;;
23384;SDS011;11865;45.394;10.978;2022-10-15T14:01:29;71.97;;;39.35;;
23384;SDS011;11865;45.394;10.978;2022-10-15T14:03:59;73.20;;;40.95;;
23384;SDS011;11865;45.394;10.978;2022-10-15T14:11:54;76.25;;;40.63;;
23384;SDS011;11865;45.394;10.978;2022-10-15T14:14:30;73.85;;;39.88;;
23384;SDS011;11865;45.394;10.978;2022-10-15T14:17:00;69.25;;;39.78;;
23384;SDS011;11865;45.394;10.978;2022-10-15T14:19:34;72.65;;;39.03;;
23384;SDS011;11865;45.394;10.978;2022-10-15T14:22:04;70.55;;;39.50;;
23384;SDS011;11865;45.394;10.978;2022-10-15T14:27:14;74.72;;;39.40;;
23384;SDS011;11865;45.394;10.978;2022-10-15T14:29:52;69.63;;;38.75;;
23384;SDS011;11865;45.394;10.978;2022-10-15T14:35:28;71.47;;;37.55;;
23384;SDS011;11865;45.394;10.978;2022-10-15T14:40:36;61.70;;;33.90;;
23384;SDS011;11865;45.394;10.978;2022-10-15T14:45:52;64.80;;;36.72;;
23384;SDS011;11865;45.394;10.978;2022-10-15T14:48:24;63.47;;;35.03;;
23384;SDS011;11865;45.394;10.978;2022-10-15T14:51:04;61.65;;;35.00;;
23384;SDS011;11865;45.394;10.978;2022-10-15T14:53:34;62.30;;;34.72;;
23384;SDS011;11865;45.394;10.978;2022-10-15T14:56:08;52.70;;;31.05;;
23384;SDS011;11865;45.394;10.978;2022-10-15T14:58:48;66.38;;;37.28;;
23384;SDS011;11865;45.394;10.978;2022-10-15T15:01:26;76.38;;;40.45;;
23384;SDS011;11865;45.394;10.978;2022-10-15T15:03:56;74.65;;;39.90;;
23384;SDS011;11865;45.394;10.978;2022-10-15T15:06:23;74.53;;;40.63;;
23384;SDS011;11865;45.394;10.978;2022-10-15T15:08:50;76.70;;;40.38;;
23384;SDS011;11865;45.394;10.978;2022-10-15T15:11:19;76.32;;;40.83;;
23384;SDS011;11865;45.394;10.978;2022-10-15T15:13:49;79.93;;;41.97;;
23384;SDS011;11865;45.394;10.978;2022-10-15T15:16:18;77.75;;;42.60;;
23384;SDS011;11865;45.394;10.978;2022-10-15T15:18:46;74.55;;;39.88;;
23384;SDS011;11865;45.394;10.978;2022-10-15T15:21:19;76.88;;;40.97;;
23384;SDS011;11865;45.394;10.978;2022-10-15T15:23:49;79.78;;;40.78;;
23384;SDS011;11865;45.394;10.978;2022-10-15T15:26:17;78.05;;;42.83;;
23384;SDS011;11865;45.394;10.978;2022-10-15T15:28:44;82.50;;;42.53;;
23384;SDS011;11865;45.394;10.978;2022-10-15T15:31:12;80.35;;;42.65;;
23384;SDS011;11865;45.394;10.978;2022-10-15T15:33:43;81.30;;;43.63;;
23384;SDS011;11865;45.394;10.978;2022-10-15T15:38:46;78.10;;;42.17;;
23384;SDS011;11865;45.394;10.978;2022-10-15T15:43:48;77.63;;;41.83;;
23384;SDS011;11865;45.394;10.978;2022-10-15T15:46:16;76.53;;;42.95;;
23384;SDS011;11865;45.394;10.978;2022-10-15T15:48:44;72.40;;;39.92;;
23384;SDS011;11865;45.394;10.978;2022-10-15T15:53:52;78.82;;;41.88;;
23384;SDS011;11865;45.394;10.978;2022-10-15T15:56:20;80.65;;;42.17;;
23384;SDS011;11865;45.394;10.978;2022-10-15T15:58:48;80.00;;;43.08;;
23384;SDS011;11865;45.394;10.978;2022-10-15T16:01:17;72.85;;;42.25;;
23384;SDS011;11865;45.394;10.978;2022-10-15T16:03:45;76.35;;;42.10;;
23384;SDS011;11865;45.394;10.978;2022-10-15T16:06:12;83.47;;;42.53;;
23384;SDS011;11865;45.394;10.978;2022-10-15T16:08:40;78.22;;;42.47;;
23384;SDS011;11865;45.394;10.978;2022-10-15T16:11:07;156.05;;;56.97;;
23384;SDS011;11865;45.394;10.978;2022-10-15T16:13:36;93.95;;;46.78;;
23384;SDS011;11865;45.394;10.978;2022-10-15T16:16:03;78.35;;;42.13;;
23384;SDS011;11865;45.394;10.978;2022-10-15T16:18:31;76.53;;;42.35;;
23384;SDS011;11865;45.394;10.978;2022-10-15T16:20:58;86.43;;;44.42;;
23384;SDS011;11865;45.394;10.978;2022-10-15T16:23:26;86.82;;;45.30;;
23384;SDS011;11865;45.394;10.978;2022-10-15T16:25:53;80.20;;;41.63;;
23384;SDS011;11865;45.394;10.978;2022-10-15T16:28:23;92.93;;;45.30;;
23384;SDS011;11865;45.394;10.978;2022-10-15T16:30:50;90.28;;;42.97;;
23384;SDS011;11865;45.394;10.978;2022-10-15T16:33:18;80.35;;;41.28;;
23384;SDS011;11865;45.394;10.978;2022-10-15T16:35:49;76.35;;;41.00;;
23384;SDS011;11865;45.394;10.978;2022-10-15T16:38:18;77.97;;;40.65;;
23384;SDS011;11865;45.394;10.978;2022-10-15T16:40:46;85.97;;;42.50;;
23384;SDS011;11865;45.394;10.978;2022-10-15T16:43:13;91.97;;;46.55;;
23384;SDS011;11865;45.394;10.978;2022-10-15T16:45:40;89.57;;;45.92;;
23384;SDS011;11865;45.394;10.978;2022-10-15T16:48:08;87.20;;;42.38;;
23384;SDS011;11865;45.394;10.978;2022-10-15T16:50:35;87.50;;;44.50;;
23384;SDS011;11865;45.394;10.978;2022-10-15T16:53:03;80.25;;;41.95;;
23384;SDS011;11865;45.394;10.978;2022-10-15T16:55:30;80.28;;;42.13;;
23384;SDS011;11865;45.394;10.978;2022-10-15T16:57:58;83.40;;;41.83;;
23384;SDS011;11865;45.394;10.978;2022-10-15T17:00:25;79.95;;;41.70;;
23384;SDS011;11865;45.394;10.978;2022-10-15T17:02:53;79.28;;;42.42;;
23384;SDS011;11865;45.394;10.978;2022-10-15T17:05:21;81.18;;;44.70;;
23384;SDS011;11865;45.394;10.978;2022-10-15T17:07:48;81.97;;;43.25;;
23384;SDS011;11865;45.394;10.978;2022-10-15T17:10:16;89.95;;;47.13;;
23384;SDS011;11865;45.394;10.978;2022-10-15T17:12:44;86.32;;;44.42;;
23384;SDS011;11865;45.394;10.978;2022-10-15T17:15:12;89.40;;;45.72;;
23384;SDS011;11865;45.394;10.978;2022-10-15T17:17:41;78.78;;;41.35;;
23384;SDS011;11865;45.394;10.978;2022-10-15T17:20:09;79.20;;;40.70;;
23384;SDS011;11865;45.394;10.978;2022-10-15T17:22:37;84.90;;;40.28;;
23384;SDS011;11865;45.394;10.978;2022-10-15T17:25:04;76.30;;;38.67;;
23384;SDS011;11865;45.394;10.978;2022-10-15T17:27:32;84.80;;;42.10;;
23384;SDS011;11865;45.394;10.978;2022-10-15T17:30:01;101.45;;;46.80;;
23384;SDS011;11865;45.394;10.978;2022-10-15T17:32:29;88.07;;;45.25;;
23384;SDS011;11865;45.394;10.978;2022-10-15T17:34:56;83.28;;;44.38;;
23384;SDS011;11865;45.394;10.978;2022-10-15T17:37:29;83.03;;;42.33;;
23384;SDS011;11865;45.394;10.978;2022-10-15T17:39:57;98.47;;;45.30;;
23384;SDS011;11865;45.394;10.978;2022-10-15T17:42:24;96.47;;;51.17;;
23384;SDS011;11865;45.394;10.978;2022-10-15T17:44:52;105.75;;;49.80;;
23384;SDS011;11865;45.394;10.978;2022-10-15T17:47:20;98.15;;;47.83;;
23384;SDS011;11865;45.394;10.978;2022-10-15T17:49:47;91.10;;;48.33;;
23384;SDS011;11865;45.394;10.978;2022-10-15T17:52:14;94.47;;;48.38;;
23384;SDS011;11865;45.394;10.978;2022-10-15T17:54:42;91.00;;;46.80;;
23384;SDS011;11865;45.394;10.978;2022-10-15T17:57:11;95.72;;;46.38;;